Time;durP1;ratioP1;P1;durP2;ratioP2;P2;SDS_P1;SDS_P2;PMS_P1;PMS_P2;Temp;Humidity;BMP_temperature;BMP_pressure;BME280_temperature;BME280_humidity;BME280_pressure;Samples;Min_cycle;Max_cycle;Signal;HPM_P1;HPM_P2
2023/04/29 00:00:44;;;;;;;4.23;3.90;;;12.20;99.90;;;;;;5054885;28;20206;-78
2023/04/29 00:03:11;;;;;;;4.40;4.00;;;12.20;99.90;;;;;;5041920;28;20199;-78
2023/04/29 00:05:38;;;;;;;4.33;3.93;;;12.20;99.90;;;;;;5032197;28;20669;-78
2023/04/29 00:08:05;;;;;;;4.13;3.83;;;12.20;99.90;;;;;;5033310;28;20220;-79
2023/04/29 00:10:32;;;;;;;4.27;3.97;;;12.20;99.90;;;;;;5030365;28;20617;-78
2023/04/29 00:12:58;;;;;;;4.40;4.10;;;12.20;99.90;;;;;;5038107;28;20195;-78
2023/04/29 00:15:27;;;;;;;4.60;4.20;;;12.20;99.90;;;;;;5047073;28;20245;-78
2023/04/29 00:17:54;;;;;;;4.10;3.80;;;12.20;99.90;;;;;;5064507;28;20223;-78
2023/04/29 00:20:21;;;;;;;4.43;4.10;;;12.20;99.90;;;;;;5064151;28;20195;-79
2023/04/29 00:22:48;;;;;;;4.40;4.10;;;12.10;99.90;;;;;;5050662;28;20205;-78
2023/04/29 00:25:15;;;;;;;4.47;4.10;;;12.20;99.90;;;;;;5047369;28;20203;-79
2023/04/29 00:27:42;;;;;;;3.90;3.70;;;12.10;99.90;;;;;;5065191;28;20287;-78
2023/04/29 00:30:10;;;;;;;4.23;3.83;;;12.10;99.90;;;;;;5047717;28;20194;-79
2023/04/29 00:32:38;;;;;;;4.27;3.97;;;12.10;99.90;;;;;;5046733;28;20205;-78
2023/04/29 00:35:06;;;;;;;4.80;4.40;;;12.10;99.90;;;;;;5047662;28;20224;-79
2023/04/29 00:37:33;;;;;;;4.50;4.10;;;12.10;99.90;;;;;;5047192;28;20287;-79
2023/04/29 00:40:00;;;;;;;4.60;4.20;;;12.10;99.90;;;;;;5039037;28;20231;-78
2023/04/29 00:42:27;;;;;;;4.00;3.70;;;12.10;99.90;;;;;;5047381;28;20243;-78
2023/04/29 00:44:55;;;;;;;4.10;3.80;;;12.10;99.90;;;;;;5047512;28;20228;-78
2023/04/29 00:47:22;;;;;;;4.10;3.80;;;12.00;99.90;;;;;;5047128;28;20214;-79
2023/04/29 00:49:50;;;;;;;4.20;3.90;;;12.10;99.90;;;;;;5046882;28;20195;-78
2023/04/29 00:52:17;;;;;;;4.37;4.03;;;12.00;99.90;;;;;;5046851;28;20605;-78
2023/04/29 00:54:45;;;;;;;4.17;3.87;;;12.00;99.90;;;;;;5046804;28;20202;-78
2023/04/29 00:57:12;;;;;;;4.67;4.30;;;12.10;99.90;;;;;;5065588;28;20231;-79
2023/04/29 00:59:39;;;;;;;4.90;4.60;;;12.10;99.90;;;;;;5047384;28;20681;-79
2023/04/29 01:02:06;;;;;;;4.80;4.40;;;12.00;99.90;;;;;;5047547;28;20690;-78
2023/04/29 01:04:33;;;;;;;4.50;4.20;;;12.00;99.90;;;;;;5050939;28;20229;-78
2023/04/29 01:07:14;;;;;;;4.70;4.40;;;12.00;99.90;;;;;;5047156;28;20213;-78
2023/04/29 01:09:59;;;;;;;4.90;4.60;;;12.00;99.90;;;;;;5044692;28;20193;-78
2023/04/29 01:12:32;;;;;;;5.60;5.20;;;12.00;99.90;;;;;;5041931;28;20224;-79
2023/04/29 01:15:05;;;;;;;5.70;5.30;;;12.00;99.90;;;;;;5047514;28;20217;-78
2023/04/29 01:17:39;;;;;;;4.90;4.60;;;12.00;99.90;;;;;;5047001;28;20219;-79
2023/04/29 01:20:09;;;;;;;5.30;5.00;;;11.90;99.90;;;;;;5039863;28;20198;-79
2023/04/29 01:22:38;;;;;;;5.60;5.20;;;11.90;99.90;;;;;;5046923;28;20290;-78
2023/04/29 01:25:07;;;;;;;5.33;5.03;;;11.80;99.90;;;;;;5047128;28;20579;-79
2023/04/29 01:27:52;;;;;;;5.57;5.17;;;11.80;99.90;;;;;;5047183;28;20225;-79
2023/04/29 01:30:31;;;;;;;5.87;5.47;;;11.80;99.90;;;;;;5047241;28;20306;-79
2023/04/29 01:33:03;;;;;;;5.90;5.50;;;11.80;99.90;;;;;;5046509;28;20201;-79
2023/04/29 01:35:45;;;;;;;5.83;5.43;;;11.80;99.90;;;;;;5066214;28;20202;-79
2023/04/29 01:38:20;;;;;;;6.07;5.57;;;11.80;99.90;;;;;;5047131;28;20560;-79
2023/04/29 01:40:58;;;;;;;6.70;6.20;;;11.80;99.90;;;;;;5048216;28;20775;-78
2023/04/29 01:43:30;;;;;;;6.03;5.53;;;11.80;99.90;;;;;;5048126;28;20224;-78
2023/04/29 01:46:10;;;;;;;6.17;5.73;;;11.80;99.90;;;;;;5047568;28;20218;-78
2023/04/29 01:48:37;;;;;;;6.27;5.77;;;11.80;99.90;;;;;;5047314;28;20202;-78
2023/04/29 01:51:05;;;;;;;5.90;5.50;;;11.70;99.90;;;;;;5048148;28;20200;-79
2023/04/29 01:53:32;;;;;;;5.97;5.50;;;11.80;99.90;;;;;;5039041;28;20192;-78
2023/04/29 01:56:00;;;;;;;5.60;5.20;;;11.70;99.90;;;;;;5047219;28;20217;-78
2023/04/29 01:58:35;;;;;;;5.47;5.07;;;11.70;99.90;;;;;;5047804;28;20209;-79
2023/04/29 02:01:20;;;;;;;5.30;4.90;;;11.70;99.90;;;;;;5065722;28;20330;-78
2023/04/29 02:03:47;;;;;;;5.50;5.10;;;11.70;99.90;;;;;;5039549;28;20239;-79
2023/04/29 02:06:16;;;;;;;5.30;4.90;;;11.60;99.90;;;;;;5047883;28;20239;-79
2023/04/29 02:08:44;;;;;;;5.53;5.13;;;11.60;99.90;;;;;;5039999;28;20213;-79
2023/04/29 02:11:12;;;;;;;5.50;5.00;;;11.60;99.90;;;;;;5047657;28;20205;-78
2023/04/29 02:13:41;;;;;;;5.53;5.13;;;11.60;99.90;;;;;;5047673;28;20198;-78
2023/04/29 02:16:09;;;;;;;5.40;5.00;;;11.60;99.90;;;;;;5048294;28;20235;-78
2023/04/29 02:18:37;;;;;;;4.93;4.60;;;11.50;99.90;;;;;;5047513;28;20198;-79
2023/04/29 02:21:06;;;;;;;5.30;4.80;;;11.50;99.90;;;;;;5047693;28;20273;-80
2023/04/29 02:23:35;;;;;;;5.90;5.40;;;11.50;99.90;;;;;;5042810;28;20206;-79
2023/04/29 02:26:02;;;;;;;5.57;5.17;;;11.50;99.90;;;;;;5065482;28;20193;-80
2023/04/29 02:28:31;;;;;;;5.30;4.83;;;11.50;99.90;;;;;;5048271;28;20201;-79
2023/04/29 02:30:57;;;;;;;5.40;5.00;;;11.50;99.90;;;;;;5065910;28;20235;-79
2023/04/29 02:33:24;;;;;;;5.43;4.93;;;11.50;99.90;;;;;;5047991;28;20205;-79
2023/04/29 02:35:51;;;;;;;4.90;4.50;;;11.50;99.90;;;;;;5042205;28;20222;-79
2023/04/29 02:38:18;;;;;;;5.10;4.70;;;11.50;99.90;;;;;;5040474;28;20264;-79
2023/04/29 02:40:46;;;;;;;4.93;4.53;;;11.50;99.90;;;;;;5048753;28;20240;-78
2023/04/29 02:43:13;;;;;;;5.13;4.70;;;11.60;99.90;;;;;;5047568;28;20193;-80
2023/04/29 02:45:42;;;;;;;5.37;4.87;;;11.60;99.90;;;;;;5048050;28;20198;-79
2023/04/29 02:48:09;;;;;;;5.20;4.70;;;11.50;99.90;;;;;;5047617;28;20216;-79
2023/04/29 02:50:36;;;;;;;5.40;4.90;;;11.50;99.90;;;;;;5048071;28;20200;-79
2023/04/29 02:53:04;;;;;;;5.60;5.10;;;11.50;99.90;;;;;;5048085;28;20203;-79
2023/04/29 02:55:31;;;;;;;5.37;4.97;;;11.50;99.90;;;;;;5042982;28;20591;-79
2023/04/29 02:58:03;;;;;;;5.13;4.73;;;11.50;99.90;;;;;;5039942;28;20217;-83
2023/04/29 03:00:30;;;;;;;5.50;5.10;;;11.50;99.90;;;;;;5037370;28;20280;-84
2023/04/29 03:02:58;;;;;;;5.20;4.70;;;11.40;99.90;;;;;;5030887;28;20194;-84
2023/04/29 03:05:25;;;;;;;5.20;4.80;;;11.40;99.90;;;;;;5033970;28;20273;-83
2023/04/29 03:07:52;;;;;;;5.10;4.70;;;11.30;99.90;;;;;;5059498;28;20221;-84
2023/04/29 03:10:19;;;;;;;4.97;4.50;;;11.40;99.90;;;;;;5050300;28;20208;-81
2023/04/29 03:12:46;;;;;;;5.43;5.00;;;11.30;99.90;;;;;;5031006;28;20202;-81
2023/04/29 03:15:14;;;;;;;5.13;4.73;;;11.30;99.90;;;;;;5039012;28;20212;-79
2023/04/29 03:17:42;;;;;;;5.30;4.90;;;11.30;99.90;;;;;;5025989;28;20259;-81
2023/04/29 03:20:11;;;;;;;4.70;4.40;;;11.30;99.90;;;;;;5042539;28;20197;-81
2023/04/29 03:22:39;;;;;;;5.00;4.60;;;11.30;99.90;;;;;;5047801;28;20669;-81
2023/04/29 03:25:09;;;;;;;5.47;5.07;;;11.30;99.90;;;;;;5060534;28;20288;-80
2023/04/29 03:27:37;;;;;;;5.37;4.93;;;11.30;99.90;;;;;;5033443;28;20210;-80
2023/04/29 03:30:05;;;;;;;5.70;5.20;;;11.30;99.90;;;;;;5050394;28;20193;-80
2023/04/29 03:32:32;;;;;;;5.90;5.13;;;11.30;99.90;;;;;;5038722;28;20205;-80
2023/04/29 03:35:00;;;;;;;5.07;4.67;;;11.30;99.90;;;;;;5036855;28;20825;-81
2023/04/29 03:37:38;;;;;;;5.77;5.27;;;11.20;99.90;;;;;;5032192;28;20586;-78
2023/04/29 03:40:28;;;;;;;5.43;4.93;;;11.20;99.90;;;;;;5037534;28;20200;-81
2023/04/29 03:42:55;;;;;;;5.60;5.20;;;11.20;99.90;;;;;;5029074;28;20214;-81
2023/04/29 03:45:22;;;;;;;5.53;5.03;;;11.10;99.90;;;;;;5034491;28;20205;-81
2023/04/29 03:47:48;;;;;;;4.93;4.53;;;11.10;99.90;;;;;;5052621;28;20229;-81
2023/04/29 03:50:15;;;;;;;5.50;5.00;;;11.10;99.90;;;;;;5038277;28;20213;-81
2023/04/29 03:52:44;;;;;;;6.60;6.10;;;11.10;99.90;;;;;;5035894;28;20282;-80
2023/04/29 03:55:14;;;;;;;5.53;5.13;;;11.00;99.90;;;;;;5043823;28;20188;-79
2023/04/29 03:57:42;;;;;;;6.13;5.53;;;11.00;99.90;;;;;;5064351;28;20220;-80
2023/04/29 04:00:11;;;;;;;7.20;6.60;;;11.00;99.90;;;;;;5052184;28;20196;-79
2023/04/29 04:02:44;;;;;;;6.97;6.47;;;11.00;99.90;;;;;;5045349;28;20217;-78
2023/04/29 04:05:11;;;;;;;7.43;6.83;;;11.00;99.90;;;;;;5059152;28;20209;-79
2023/04/29 04:07:41;;;;;;;7.80;7.20;;;11.00;99.90;;;;;;5039535;28;20224;-79
2023/04/29 04:10:28;;;;;;;7.13;6.13;;;11.00;99.90;;;;;;5061082;28;20333;-79
2023/04/29 04:12:56;;;;;;;6.47;5.97;;;11.00;99.90;;;;;;5037579;28;20209;-79
2023/04/29 04:15:23;;;;;;;6.77;6.13;;;11.00;99.90;;;;;;5055498;28;20231;-83
2023/04/29 04:17:50;;;;;;;6.57;6.07;;;11.00;99.90;;;;;;5040446;28;20239;-79
2023/04/29 04:20:17;;;;;;;6.93;6.33;;;11.00;99.90;;;;;;5044883;28;20208;-79
2023/04/29 04:22:44;;;;;;;5.93;5.53;;;11.00;99.90;;;;;;5047390;28;20635;-77
2023/04/29 04:25:17;;;;;;;6.50;6.00;;;11.00;99.90;;;;;;5041713;28;20305;-77
2023/04/29 04:27:46;;;;;;;5.90;5.50;;;11.00;99.90;;;;;;5048986;28;20216;-77
2023/04/29 04:30:23;;;;;;;6.33;5.83;;;11.10;99.90;;;;;;5050648;28;20192;-77
2023/04/29 04:32:49;;;;;;;6.13;5.67;;;11.10;99.90;;;;;;5050436;28;20228;-77
2023/04/29 04:35:16;;;;;;;6.73;6.13;;;11.10;99.90;;;;;;5049612;28;20205;-77
2023/04/29 04:37:43;;;;;;;7.07;6.50;;;11.10;99.90;;;;;;5042037;28;20253;-77
2023/04/29 04:40:12;;;;;;;6.27;5.73;;;11.10;99.90;;;;;;5048200;28;20198;-77
2023/04/29 04:43:00;;;;;;;7.77;7.17;;;11.10;99.90;;;;;;5066131;28;20264;-77
2023/04/29 04:45:29;;;;;;;7.90;7.20;;;11.10;99.90;;;;;;5048269;28;20240;-77
2023/04/29 04:47:55;;;;;;;7.70;6.90;;;11.10;99.90;;;;;;5047988;28;20221;-77
2023/04/29 04:50:28;;;;;;;6.97;6.30;;;11.10;99.90;;;;;;5048540;28;20284;-77
2023/04/29 04:52:56;;;;;;;6.67;6.17;;;11.10;99.90;;;;;;5048623;28;20235;-77
2023/04/29 04:56:01;;;;;;;7.03;6.47;;;11.20;99.90;;;;;;5048169;28;20204;-77
2023/04/29 04:58:31;;;;;;;6.60;6.10;;;11.20;99.90;;;;;;5049456;28;20237;-81
2023/04/29 05:00:58;;;;;;;6.50;6.00;;;11.20;99.90;;;;;;5075055;28;20228;-79
2023/04/29 05:03:25;;;;;;;6.67;6.13;;;11.30;99.90;;;;;;5048225;28;20205;-79
2023/04/29 05:05:56;;;;;;;5.60;5.20;;;11.50;99.90;;;;;;5052525;28;20206;-79
2023/04/29 05:08:24;;;;;;;5.97;5.47;;;11.80;99.90;;;;;;5053411;28;20203;-80
2023/04/29 05:10:52;;;;;;;5.40;4.90;;;12.20;99.90;;;;;;5057330;28;20228;-80
2023/04/29 05:13:20;;;;;;;5.50;5.10;;;12.60;99.90;;;;;;5034805;28;20672;-84
2023/04/29 05:15:49;;;;;;;5.50;5.00;;;13.00;99.90;;;;;;5025339;28;20203;-83
2023/04/29 05:18:20;;;;;;;5.10;4.70;;;13.40;99.90;;;;;;5037211;28;20668;-82
2023/04/29 05:20:50;;;;;;;5.30;4.80;;;13.80;99.90;;;;;;5035692;28;20199;-81
2023/04/29 05:23:17;;;;;;;4.93;4.50;;;14.00;99.90;;;;;;5044474;28;20196;-83
2023/04/29 05:25:46;;;;;;;4.60;4.23;;;14.30;99.90;;;;;;5040699;28;20210;-80
2023/04/29 05:28:13;;;;;;;4.70;4.30;;;14.70;99.90;;;;;;5051790;28;20556;-83
2023/04/29 05:30:42;;;;;;;4.63;3.80;;;15.00;99.90;;;;;;5040232;28;20205;-79
2023/04/29 05:33:11;;;;;;;4.27;3.60;;;15.30;99.90;;;;;;5027314;28;20199;-80
2023/04/29 05:35:38;;;;;;;3.83;3.53;;;15.50;99.90;;;;;;5035447;28;20328;-79
2023/04/29 05:38:05;;;;;;;4.07;3.77;;;15.50;99.90;;;;;;5035710;28;20299;-80
2023/04/29 05:40:37;;;;;;;4.30;3.50;;;15.40;99.90;;;;;;5032579;28;20215;-83
2023/04/29 05:43:29;;;;;;;3.37;3.17;;;15.60;99.90;;;;;;5043467;28;20192;-80
2023/04/29 05:45:57;;;;;;;3.67;3.40;;;15.90;99.90;;;;;;5035693;28;20589;-79
2023/04/29 05:48:25;;;;;;;3.63;3.43;;;15.90;99.90;;;;;;5030578;28;20195;-83
2023/04/29 05:50:53;;;;;;;3.43;3.20;;;15.90;99.90;;;;;;5041538;28;20199;-78
2023/04/29 05:53:20;;;;;;;3.90;3.60;;;15.80;99.90;;;;;;5033221;28;20197;-77
2023/04/29 05:55:49;;;;;;;3.77;3.47;;;15.90;99.90;;;;;;5034754;28;20290;-78
2023/04/29 05:58:17;;;;;;;4.13;3.23;;;16.00;99.90;;;;;;5033872;28;20211;-77
2023/04/29 06:00:44;;;;;;;3.63;3.37;;;16.00;99.90;;;;;;5034660;28;20199;-77
2023/04/29 06:03:17;;;;;;;3.40;3.20;;;15.90;99.90;;;;;;5033590;28;20203;-77
2023/04/29 06:05:45;;;;;;;3.70;3.40;;;15.80;99.90;;;;;;5034983;28;20248;-78
2023/04/29 06:08:32;;;;;;;3.70;3.40;;;15.80;99.90;;;;;;5007532;28;20725;-78
2023/04/29 06:11:15;;;;;;;3.60;3.30;;;15.80;99.90;;;;;;5033957;28;20203;-77
2023/04/29 06:13:42;;;;;;;3.77;3.47;;;15.80;99.90;;;;;;5034067;28;20231;-77
2023/04/29 06:16:09;;;;;;;3.63;3.13;;;15.80;99.90;;;;;;5034167;28;20218;-77
2023/04/29 06:18:37;;;;;;;3.40;3.20;;;15.90;99.90;;;;;;5034069;28;20199;-77
2023/04/29 06:21:05;;;;;;;3.53;3.30;;;15.90;99.90;;;;;;5034254;28;20202;-77
2023/04/29 06:23:32;;;;;;;3.70;3.40;;;16.10;99.90;;;;;;5034346;28;20203;-77
2023/04/29 06:26:00;;;;;;;3.70;3.40;;;16.20;99.90;;;;;;5034073;28;20230;-77
2023/04/29 06:28:28;;;;;;;3.50;3.30;;;16.30;99.90;;;;;;5034366;28;20544;-77
2023/04/29 06:30:55;;;;;;;3.70;3.50;;;16.50;99.90;;;;;;5033990;28;20233;-77
2023/04/29 06:33:22;;;;;;;3.57;3.23;;;16.70;99.90;;;;;;5025831;28;20274;-77
2023/04/29 06:35:50;;;;;;;3.70;3.40;;;16.50;99.90;;;;;;5034137;28;20553;-78
2023/04/29 06:38:47;;;;;;;3.60;3.30;;;16.30;99.90;;;;;;4990021;28;20344;-77
2023/04/29 06:41:39;;;;;;;3.80;3.60;;;16.30;99.90;;;;;;5046658;28;20202;-77
2023/04/29 06:44:26;;;;;;;3.90;3.60;;;16.30;99.90;;;;;;5050493;28;20200;-78
2023/04/29 06:47:03;;;;;;;3.60;3.30;;;16.50;99.90;;;;;;5039930;28;20588;-81
2023/04/29 06:49:43;;;;;;;3.70;3.40;;;16.60;99.90;;;;;;5034889;28;20195;-80
2023/04/29 06:52:10;;;;;;;3.40;3.10;;;16.90;99.90;;;;;;5034276;28;20203;-80
2023/04/29 06:54:38;;;;;;;3.20;3.00;;;17.10;99.90;;;;;;5034395;28;20296;-80
2023/04/29 06:57:05;;;;;;;3.20;3.00;;;17.40;99.90;;;;;;5052146;28;20244;-81
2023/04/29 06:59:32;;;;;;;2.97;2.77;;;17.50;99.90;;;;;;5033531;28;20253;-80
2023/04/29 07:01:59;;;;;;;3.00;2.80;;;17.60;99.90;;;;;;5057011;28;20202;-80
2023/04/29 07:04:25;;;;;;;3.07;2.80;;;17.80;99.90;;;;;;5020384;28;20218;-80
2023/04/29 07:06:53;;;;;;;3.00;2.80;;;17.90;99.90;;;;;;5044413;28;20233;-79
2023/04/29 07:09:20;;;;;;;3.00;2.80;;;18.10;99.90;;;;;;5030731;28;20203;-79
2023/04/29 07:11:48;;;;;;;3.07;2.87;;;18.30;99.90;;;;;;5020807;28;20214;-80
2023/04/29 07:14:14;;;;;;;3.00;2.60;;;18.50;99.90;;;;;;5022051;28;20223;-79
2023/04/29 07:16:41;;;;;;;3.83;2.70;;;18.60;99.90;;;;;;5018403;28;20226;-79
2023/04/29 07:19:10;;;;;;;2.67;2.57;;;18.30;99.90;;;;;;5023092;28;20203;-80
2023/04/29 07:21:37;;;;;;;2.60;2.50;;;18.20;99.90;;;;;;5016525;28;20207;-81
2023/04/29 07:24:05;;;;;;;2.83;2.60;;;18.00;99.90;;;;;;5022103;28;20202;-80
2023/04/29 07:26:32;;;;;;;2.73;2.50;;;17.60;99.90;;;;;;5014333;28;20281;-77
2023/04/29 07:29:00;;;;;;;2.50;2.40;;;17.60;99.90;;;;;;5055255;28;20198;-77
2023/04/29 07:31:28;;;;;;;2.60;2.50;;;18.20;99.90;;;;;;5028154;28;20525;-77
2023/04/29 07:33:55;;;;;;;2.43;2.33;;;18.80;99.90;;;;;;5024323;28;20245;-77
2023/04/29 07:36:22;;;;;;;2.60;2.50;;;19.40;99.90;;;;;;5032286;28;20695;-77
2023/04/29 07:38:49;;;;;;;2.40;2.30;;;19.70;99.90;;;;;;5021942;28;20230;-77
2023/04/29 07:41:16;;;;;;;2.77;2.50;;;19.90;99.90;;;;;;5024959;28;20222;-77
2023/04/29 07:43:43;;;;;;;2.50;2.40;;;20.60;99.90;;;;;;5019277;28;20203;-79
2023/04/29 07:46:11;;;;;;;2.70;2.50;;;21.40;99.90;;;;;;5026808;28;20226;-80
2023/04/29 07:48:39;;;;;;;2.60;2.43;;;21.70;99.90;;;;;;5036065;28;20967;-79
2023/04/29 07:51:06;;;;;;;2.53;2.37;;;21.30;99.90;;;;;;5056086;28;20604;-83
2023/04/29 07:53:33;;;;;;;2.90;2.70;;;21.40;99.90;;;;;;5033538;28;20212;-79
2023/04/29 07:56:04;;;;;;;2.80;2.60;;;21.60;99.90;;;;;;5025719;28;20203;-82
2023/04/29 07:58:31;;;;;;;2.60;2.50;;;21.80;99.90;;;;;;5054355;28;20234;-82
2023/04/29 08:01:05;;;;;;;2.50;2.40;;;21.70;99.90;;;;;;5059432;28;20742;-82
2023/04/29 08:03:33;;;;;;;2.27;2.17;;;20.90;99.90;;;;;;5038421;28;20207;-82
2023/04/29 08:06:02;;;;;;;2.67;2.47;;;20.40;99.90;;;;;;5036723;28;20188;-82
2023/04/29 08:08:35;;;;;;;2.50;2.40;;;20.30;99.90;;;;;;5055457;28;20203;-79
2023/04/29 08:11:02;;;;;;;2.87;2.50;;;20.50;99.90;;;;;;5025527;28;20228;-77
2023/04/29 08:13:29;;;;;;;2.30;2.20;;;20.70;99.90;;;;;;5044068;28;20326;-79
2023/04/29 08:15:55;;;;;;;2.40;2.30;;;20.60;99.90;;;;;;5031254;28;20308;-79
2023/04/29 08:18:22;;;;;;;2.97;2.50;;;21.00;99.90;;;;;;5023278;28;20211;-79
2023/04/29 08:20:50;;;;;;;2.63;2.47;;;20.90;99.90;;;;;;5043007;28;20615;-79
2023/04/29 08:23:17;;;;;;;2.40;2.17;;;21.20;99.90;;;;;;5023000;28;20720;-79
2023/04/29 08:25:45;;;;;;;2.23;2.13;;;21.10;99.90;;;;;;5048145;28;20229;-79
2023/04/29 08:28:12;;;;;;;2.50;2.30;;;20.50;99.90;;;;;;5023450;28;20200;-79
2023/04/29 08:30:40;;;;;;;2.30;2.20;;;20.00;99.90;;;;;;5046939;28;20203;-80
2023/04/29 08:33:07;;;;;;;2.57;2.37;;;19.60;99.90;;;;;;5022256;28;20763;-79
2023/04/29 08:35:36;;;;;;;2.20;2.10;;;19.30;99.90;;;;;;5043474;28;20215;-79
2023/04/29 08:38:05;;;;;;;2.20;2.10;;;19.60;99.90;;;;;;5041003;28;20802;-79
2023/04/29 08:40:34;;;;;;;2.10;2.00;;;20.40;99.90;;;;;;5029998;28;20685;-79
2023/04/29 08:43:02;;;;;;;2.30;2.20;;;20.70;99.90;;;;;;5048359;28;20208;-79
2023/04/29 08:45:30;;;;;;;2.03;1.93;;;21.10;99.90;;;;;;5018055;28;20295;-78
2023/04/29 08:47:57;;;;;;;2.10;2.00;;;21.50;99.90;;;;;;5043616;28;20747;-77
2023/04/29 08:50:25;;;;;;;2.20;2.10;;;21.90;99.90;;;;;;5024252;28;20871;-77
2023/04/29 08:52:52;;;;;;;3.20;2.23;;;22.20;99.90;;;;;;5037839;28;20227;-77
2023/04/29 08:55:20;;;;;;;2.27;2.17;;;22.50;99.90;;;;;;5040448;28;20281;-77
2023/04/29 08:57:49;;;;;;;2.93;2.50;;;22.80;99.90;;;;;;5036980;28;20274;-77
2023/04/29 09:00:17;;;;;;;2.30;2.20;;;22.80;99.90;;;;;;5025107;28;20293;-79
2023/04/29 09:02:47;;;;;;;2.27;2.10;;;22.90;99.90;;;;;;5043326;28;20314;-81
2023/04/29 09:05:14;;;;;;;2.50;2.30;;;23.20;99.90;;;;;;5047821;28;20266;-81
2023/04/29 09:07:42;;;;;;;2.50;2.30;;;23.40;99.90;;;;;;5035815;28;20780;-81
2023/04/29 09:10:09;;;;;;;3.23;2.30;;;23.70;99.90;;;;;;5035703;28;20311;-82
2023/04/29 09:12:38;;;;;;;2.37;2.23;;;23.60;99.90;;;;;;5053047;28;20568;-81
2023/04/29 09:15:05;;;;;;;2.60;2.40;;;23.70;99.90;;;;;;5053432;28;20195;-81
2023/04/29 09:17:39;;;;;;;2.30;2.10;;;24.10;99.90;;;;;;5053290;28;20222;-81
2023/04/29 09:20:27;;;;;;;2.10;2.00;;;24.50;99.90;;;;;;5035486;28;20203;-80
2023/04/29 09:22:54;;;;;;;2.37;2.13;;;24.70;99.90;;;;;;5037387;28;20203;-81
2023/04/29 09:25:22;;;;;;;2.37;2.27;;;24.30;99.90;;;;;;5036300;28;20261;-81
2023/04/29 09:27:50;;;;;;;2.50;2.30;;;24.50;99.90;;;;;;5031788;28;20345;-81
2023/04/29 09:30:18;;;;;;;2.50;2.40;;;24.60;99.90;;;;;;5034949;28;20210;-81
2023/04/29 09:32:46;;;;;;;2.50;2.30;;;24.60;99.90;;;;;;5057399;28;20679;-79
2023/04/29 09:35:24;;;;;;;2.30;2.17;;;24.40;99.90;;;;;;5035973;28;20205;-78
2023/04/29 09:37:52;;;;;;;2.30;2.20;;;23.30;99.90;;;;;;5033886;28;20612;-78
2023/04/29 09:40:30;;;;;;;2.57;2.37;;;22.70;99.90;;;;;;5053440;28;20199;-78
2023/04/29 09:42:58;;;;;;;2.50;2.40;;;22.00;99.90;;;;;;5048435;28;20198;-78
2023/04/29 09:45:35;;;;;;;2.50;2.30;;;21.30;99.90;;;;;;5052697;28;20633;-77
2023/04/29 09:48:03;;;;;;;2.20;2.10;;;21.20;99.90;;;;;;5034946;28;20644;-76
2023/04/29 09:50:31;;;;;;;2.20;2.10;;;21.10;99.90;;;;;;5050750;28;20645;-77
2023/04/29 09:52:58;;;;;;;2.10;2.00;;;21.30;99.90;;;;;;5052885;28;20206;-77
2023/04/29 09:55:25;;;;;;;2.30;2.10;;;20.80;99.90;;;;;;5062273;28;20202;-77
2023/04/29 09:57:52;;;;;;;2.30;2.20;;;20.80;99.90;;;;;;5061639;28;20219;-77
2023/04/29 10:00:20;;;;;;;2.20;2.10;;;20.40;99.90;;;;;;5044113;28;20254;-76
2023/04/29 10:02:48;;;;;;;2.10;2.00;;;20.20;99.90;;;;;;5053851;28;20195;-80
2023/04/29 10:05:16;;;;;;;2.27;2.17;;;20.10;99.90;;;;;;5037613;28;20686;-78
2023/04/29 10:07:46;;;;;;;2.00;1.90;;;19.90;99.90;;;;;;5030071;28;20577;-79
2023/04/29 10:10:13;;;;;;;2.10;2.00;;;19.80;99.90;;;;;;5050987;28;20199;-78
2023/04/29 10:12:41;;;;;;;1.97;1.87;;;20.10;99.90;;;;;;5035832;28;20231;-80
2023/04/29 10:15:18;;;;;;;2.30;2.20;;;20.30;99.90;;;;;;5029102;28;20254;-81
2023/04/29 10:17:49;;;;;;;1.93;1.93;;;20.70;99.90;;;;;;5048782;28;20227;-81
2023/04/29 10:20:22;;;;;;;2.40;2.00;;;20.80;99.90;;;;;;5047162;28;20630;-81
2023/04/29 10:22:50;;;;;;;1.90;1.80;;;20.80;99.90;;;;;;5056018;28;20204;-81
2023/04/29 10:25:19;;;;;;;3.37;1.80;;;20.90;99.90;;;;;;5055411;28;20200;-80
2023/04/29 10:27:47;;;;;;;1.90;1.87;;;20.90;99.90;;;;;;5035442;28;20273;-81
2023/04/29 10:30:16;;;;;;;2.40;2.10;;;20.80;99.90;;;;;;5052898;28;20195;-83
2023/04/29 10:32:44;;;;;;;2.20;2.10;;;20.60;99.90;;;;;;5031187;28;20202;-82
2023/04/29 10:35:14;;;;;;;1.97;1.87;;;20.40;99.90;;;;;;5035424;28;20683;-82
2023/04/29 10:37:41;;;;;;;2.33;2.13;;;20.20;99.90;;;;;;5035043;28;20624;-79
2023/04/29 10:40:14;;;;;;;2.33;2.07;;;20.10;99.90;;;;;;5034208;28;20270;-80
2023/04/29 10:42:45;;;;;;;2.90;2.40;;;19.70;99.90;;;;;;5056168;28;20232;-78
2023/04/29 10:45:19;;;;;;;2.20;2.10;;;19.60;99.90;;;;;;5042208;28;20191;-80
2023/04/29 10:48:17;;;;;;;2.10;2.00;;;19.30;99.90;;;;;;5028249;28;20248;-80
2023/04/29 10:51:02;;;;;;;2.17;2.07;;;19.30;99.90;;;;;;5031524;28;20554;-79
2023/04/29 10:53:29;;;;;;;2.43;2.30;;;19.50;99.90;;;;;;5037614;28;20235;-81
2023/04/29 10:55:59;;;;;;;2.07;1.97;;;19.70;99.90;;;;;;5035073;28;20205;-80
2023/04/29 10:58:43;;;;;;;2.37;2.27;;;19.90;99.90;;;;;;5052155;28;20214;-80
2023/04/29 11:01:11;;;;;;;2.33;2.23;;;19.90;99.90;;;;;;5049165;28;20364;-78
2023/04/29 11:03:57;;;;;;;2.03;1.93;;;19.70;99.90;;;;;;5041579;28;20274;-79
2023/04/29 11:06:26;;;;;;;2.30;2.20;;;19.70;99.90;;;;;;5023723;28;20230;-79
2023/04/29 11:09:02;;;;;;;2.03;1.93;;;19.80;99.90;;;;;;5019285;28;20196;-78
2023/04/29 11:11:47;;;;;;;2.10;2.00;;;19.60;99.90;;;;;;5021572;28;20338;-78
2023/04/29 11:14:15;;;;;;;2.30;2.20;;;19.70;99.90;;;;;;5041716;28;20675;-79
2023/04/29 11:16:50;;;;;;;3.13;2.47;;;20.10;99.90;;;;;;5043422;28;20265;-79
2023/04/29 11:19:17;;;;;;;5.70;3.30;;;20.40;99.90;;;;;;5031993;28;20219;-79
2023/04/29 11:21:46;;;;;;;3.43;2.90;;;20.40;99.90;;;;;;5045759;28;20206;-78
2023/04/29 11:24:16;;;;;;;2.30;2.20;;;20.50;99.90;;;;;;5021377;28;20192;-78
2023/04/29 11:26:45;;;;;;;2.50;2.10;;;20.20;99.90;;;;;;5028180;28;20265;-79
2023/04/29 11:29:11;;;;;;;2.67;2.30;;;20.00;99.90;;;;;;5032344;28;20227;-79
2023/04/29 11:31:39;;;;;;;2.00;1.90;;;19.90;99.90;;;;;;5056211;28;20241;-79
2023/04/29 11:34:06;;;;;;;2.30;2.10;;;20.10;99.90;;;;;;5048728;28;20200;-76
2023/04/29 11:36:33;;;;;;;2.30;2.10;;;20.10;99.90;;;;;;5047067;28;20234;-76
2023/04/29 11:39:03;;;;;;;2.10;2.00;;;20.00;99.90;;;;;;5027177;28;20719;-76
2023/04/29 11:41:31;;;;;;;2.20;2.10;;;20.00;99.90;;;;;;5032162;28;20295;-79
2023/04/29 11:43:59;;;;;;;2.47;2.27;;;19.70;99.90;;;;;;5030123;28;20256;-77
2023/04/29 11:46:27;;;;;;;2.23;2.10;;;19.30;99.90;;;;;;5015591;28;20252;-76
2023/04/29 11:48:54;;;;;;;2.10;2.00;;;19.50;99.90;;;;;;5038309;28;20222;-76
2023/04/29 11:51:21;;;;;;;2.30;2.10;;;19.60;99.90;;;;;;5044277;28;20198;-76
2023/04/29 11:53:48;;;;;;;2.20;2.10;;;19.70;99.90;;;;;;5034499;28;20760;-76
2023/04/29 11:56:16;;;;;;;2.33;2.10;;;19.80;99.90;;;;;;5024106;28;20219;-76
2023/04/29 11:58:43;;;;;;;2.10;2.00;;;19.70;99.90;;;;;;5033041;28;20204;-79
2023/04/29 12:01:10;;;;;;;2.20;2.10;;;19.80;99.90;;;;;;5023661;28;20663;-79
2023/04/29 12:03:37;;;;;;;2.10;2.00;;;19.80;99.90;;;;;;5027721;28;20192;-81
2023/04/29 12:06:04;;;;;;;2.00;1.90;;;19.90;99.90;;;;;;5022333;28;20306;-80
2023/04/29 12:08:32;;;;;;;2.00;1.90;;;20.10;99.90;;;;;;5031276;28;20672;-79
2023/04/29 12:11:00;;;;;;;2.33;2.13;;;20.40;99.90;;;;;;5036427;28;20249;-80
2023/04/29 12:13:30;;;;;;;2.30;2.20;;;20.40;99.90;;;;;;5021678;28;20204;-80
2023/04/29 12:15:58;;;;;;;2.67;2.40;;;20.00;99.90;;;;;;5017782;28;20196;-81
2023/04/29 12:18:26;;;;;;;3.20;2.40;;;19.90;99.90;;;;;;5026387;28;20219;-81
2023/04/29 12:20:54;;;;;;;3.10;2.20;;;19.90;99.90;;;;;;5017979;28;20207;-80
2023/04/29 12:23:23;;;;;;;2.60;2.40;;;19.70;99.90;;;;;;5046924;28;20225;-81
2023/04/29 12:25:51;;;;;;;3.40;2.50;;;19.60;99.90;;;;;;5016640;28;20199;-81
2023/04/29 12:28:19;;;;;;;5.13;2.17;;;19.70;99.90;;;;;;5042943;28;20207;-80
2023/04/29 12:30:48;;;;;;;3.00;2.30;;;19.60;99.90;;;;;;5028283;28;20196;-80
2023/04/29 12:33:22;;;;;;;2.40;2.20;;;19.60;99.90;;;;;;5047583;28;20191;-81
2023/04/29 12:35:50;;;;;;;2.70;2.50;;;19.50;99.90;;;;;;5035429;28;20654;-79
2023/04/29 12:38:20;;;;;;;2.40;2.20;;;19.30;99.90;;;;;;5037071;28;20207;-79
2023/04/29 12:40:47;;;;;;;2.93;2.63;;;19.30;99.90;;;;;;5048817;28;20187;-79
2023/04/29 12:43:15;;;;;;;2.63;2.30;;;19.10;99.90;;;;;;5052966;28;20193;-80
2023/04/29 12:45:42;;;;;;;4.03;2.27;;;19.00;99.90;;;;;;5052474;28;20196;-80
2023/04/29 12:48:11;;;;;;;2.63;2.20;;;18.90;99.90;;;;;;5040684;28;20599;-81
2023/04/29 12:50:39;;;;;;;2.70;2.47;;;18.60;99.90;;;;;;5050367;28;20188;-78
2023/04/29 12:53:07;;;;;;;3.23;2.47;;;18.80;99.90;;;;;;5018468;28;20206;-79
2023/04/29 12:55:35;;;;;;;2.40;2.30;;;18.80;99.90;;;;;;5024925;28;20641;-79
2023/04/29 12:58:02;;;;;;;4.90;2.40;;;18.70;99.90;;;;;;5025647;28;20940;-79
2023/04/29 13:00:28;;;;;;;2.83;2.30;;;18.50;99.90;;;;;;5046726;28;20242;-78